Startpagina
METAR-TAF:

METAR-TAF

Vliegvelden :

Portage Glacier, Alaska, Verenigde Staten

breedte: 60-47N, lengte: 148-50W, hoogte: 29 m

Actueel weer

Dit bericht is 51 minuten geleden gemaakt, om 05:53 UTC
Wind 10 kt uit het zuidoosten met uitschieters tot 25 kt
Temperatuur 7°C
Vochtigheid 87%
Druk 1004 hPa
Zicht: 11.3 km
Weinig wolken op 1600 ft
Weinig wolken op 2200 ft
Geheel bewolkt op 3900 ft
lichte regen

METAR: PATO 180553Z AUTO 13010G25KT 7SM -RA FEW016 FEW022 OVC039 07/05 A2965 RMK AO2 PK WND 12032/0527 SLP041 P0000 60010 T00720050 10078 20050 53005 TSNO

Tijdstip: 21:44 (06:44 UTC)


TAF: ontbreekt

Waarnemingen en weersverwachtingen van meer dan 4000 vliegvelden (METAR en TAF).

De beschikbare stations zijn de gele en rode punten op de kaart.

Ga met uw muis naar het station om de naam te zien.

Klik dan om waarnemingen en weersverwachtingen te zien.

kaart wijzigen: klik op de groene knoppen met een zwart kruis om in te zoomen, op de groene knop met een streepje om uit te zoomen of op de groene pijlen voor aangrenzende kaarten.


METAR-TAF: